sensor_id;sensor_type;location;lat;lon;timestamp;temperature;humidity
8945;DHT22;4507;40.232;29.132;2022-12-29T00:00:22;9.80;95.60
8945;DHT22;4507;40.232;29.132;2022-12-29T00:02:51;9.70;95.60
8945;DHT22;4507;40.232;29.132;2022-12-29T00:05:20;9.70;95.70
8945;DHT22;4507;40.232;29.132;2022-12-29T00:07:50;9.60;95.90
8945;DHT22;4507;40.232;29.132;2022-12-29T00:10:19;9.50;96.00
8945;DHT22;4507;40.232;29.132;2022-12-29T00:12:49;9.50;96.20
8945;DHT22;4507;40.232;29.132;2022-12-29T00:15:36;9.50;96.50
8945;DHT22;4507;40.232;29.132;2022-12-29T00:18:06;9.40;96.70
8945;DHT22;4507;40.232;29.132;2022-12-29T00:20:35;9.40;96.80
8945;DHT22;4507;40.232;29.132;2022-12-29T00:23:23;9.30;97.10
8945;DHT22;4507;40.232;29.132;2022-12-29T00:26:13;9.30;97.50
8945;DHT22;4507;40.232;29.132;2022-12-29T00:29:02;9.30;97.90
8945;DHT22;4507;40.232;29.132;2022-12-29T00:31:50;9.30;98.20
8945;DHT22;4507;40.232;29.132;2022-12-29T00:34:37;9.30;98.60
8945;DHT22;4507;40.232;29.132;2022-12-29T00:37:23;9.30;99.00
8945;DHT22;4507;40.232;29.132;2022-12-29T00:40:31;9.30;99.50
8945;DHT22;4507;40.232;29.132;2022-12-29T00:43:17;9.40;99.80
8945;DHT22;4507;40.232;29.132;2022-12-29T00:46:05;9.30;99.90
8945;DHT22;4507;40.232;29.132;2022-12-29T00:48:34;9.30;99.90
8945;DHT22;4507;40.232;29.132;2022-12-29T00:51:21;9.30;99.90
8945;DHT22;4507;40.232;29.132;2022-12-29T00:53:50;9.40;99.90
8945;DHT22;4507;40.232;29.132;2022-12-29T00:56:19;9.30;99.90
8945;DHT22;4507;40.232;29.132;2022-12-29T00:58:48;9.30;99.90
8945;DHT22;4507;40.232;29.132;2022-12-29T01:01:18;9.40;99.90
8945;DHT22;4507;40.232;29.132;2022-12-29T01:03:48;9.40;99.90
8945;DHT22;4507;40.232;29.132;2022-12-29T01:06:19;9.40;99.90
8945;DHT22;4507;40.232;29.132;2022-12-29T01:08:48;9.40;99.90
8945;DHT22;4507;40.232;29.132;2022-12-29T01:11:38;9.40;99.90
8945;DHT22;4507;40.232;29.132;2022-12-29T01:14:06;9.40;99.90
8945;DHT22;4507;40.232;29.132;2022-12-29T01:16:37;9.40;99.90
8945;DHT22;4507;40.232;29.132;2022-12-29T01:19:07;9.40;99.90
8945;DHT22;4507;40.232;29.132;2022-12-29T01:21:36;9.30;99.90
8945;DHT22;4507;40.232;29.132;2022-12-29T01:24:06;9.20;99.90
8945;DHT22;4507;40.232;29.132;2022-12-29T01:26:35;9.20;99.90
8945;DHT22;4507;40.232;29.132;2022-12-29T01:29:04;9.20;99.90
8945;DHT22;4507;40.232;29.132;2022-12-29T01:31:33;9.10;99.90
8945;DHT22;4507;40.232;29.132;2022-12-29T01:34:04;9.10;99.90
8945;DHT22;4507;40.232;29.132;2022-12-29T01:36:34;9.00;99.90
8945;DHT22;4507;40.232;29.132;2022-12-29T01:39:22;9.00;99.90
8945;DHT22;4507;40.232;29.132;2022-12-29T01:41:51;8.90;99.90
8945;DHT22;4507;40.232;29.132;2022-12-29T01:44:48;8.90;99.90
8945;DHT22;4507;40.232;29.132;2022-12-29T01:47:25;8.90;99.90
8945;DHT22;4507;40.232;29.132;2022-12-29T01:50:00;8.80;99.90
8945;DHT22;4507;40.232;29.132;2022-12-29T01:52:32;8.80;99.90
8945;DHT22;4507;40.232;29.132;2022-12-29T01:55:04;8.70;99.90
8945;DHT22;4507;40.232;29.132;2022-12-29T01:57:36;8.70;99.90
8945;DHT22;4507;40.232;29.132;2022-12-29T02:00:24;8.70;99.90
8945;DHT22;4507;40.232;29.132;2022-12-29T02:02:54;8.70;99.90
8945;DHT22;4507;40.232;29.132;2022-12-29T02:05:27;8.60;99.90
8945;DHT22;4507;40.232;29.132;2022-12-29T02:07:59;8.60;99.90
8945;DHT22;4507;40.232;29.132;2022-12-29T02:10:32;8.60;99.90
8945;DHT22;4507;40.232;29.132;2022-12-29T02:13:02;8.50;99.90
8945;DHT22;4507;40.232;29.132;2022-12-29T02:15:40;8.50;99.90
8945;DHT22;4507;40.232;29.132;2022-12-29T02:18:22;8.50;99.90
8945;DHT22;4507;40.232;29.132;2022-12-29T02:21:23;8.50;99.90
8945;DHT22;4507;40.232;29.132;2022-12-29T02:24:27;8.40;99.90
8945;DHT22;4507;40.232;29.132;2022-12-29T02:30:15;8.40;99.90
8945;DHT22;4507;40.232;29.132;2022-12-29T02:32:52;8.30;99.90
8945;DHT22;4507;40.232;29.132;2022-12-29T02:35:29;8.30;99.90
8945;DHT22;4507;40.232;29.132;2022-12-29T02:40:55;8.30;99.90
8945;DHT22;4507;40.232;29.132;2022-12-29T02:43:31;8.30;99.90
8945;DHT22;4507;40.232;29.132;2022-12-29T02:46:06;8.20;99.90
8945;DHT22;4507;40.232;29.132;2022-12-29T02:48:45;8.20;99.90
8945;DHT22;4507;40.232;29.132;2022-12-29T02:51:19;8.20;99.90
8945;DHT22;4507;40.232;29.132;2022-12-29T02:53:51;8.20;99.90
8945;DHT22;4507;40.232;29.132;2022-12-29T02:56:38;8.10;99.90
8945;DHT22;4507;40.232;29.132;2022-12-29T02:59:08;8.10;99.90
8945;DHT22;4507;40.232;29.132;2022-12-29T03:01:48;8.10;99.90
8945;DHT22;4507;40.232;29.132;2022-12-29T03:04:43;8.10;99.90
8945;DHT22;4507;40.232;29.132;2022-12-29T03:07:22;8.00;99.90
8945;DHT22;4507;40.232;29.132;2022-12-29T03:09:57;8.00;99.90
8945;DHT22;4507;40.232;29.132;2022-12-29T03:12:31;8.00;99.90
8945;DHT22;4507;40.232;29.132;2022-12-29T03:15:22;8.00;99.90
8945;DHT22;4507;40.232;29.132;2022-12-29T03:18:12;8.00;99.90
8945;DHT22;4507;40.232;29.132;2022-12-29T03:20:49;8.00;99.90
8945;DHT22;4507;40.232;29.132;2022-12-29T03:23:21;8.00;99.90
8945;DHT22;4507;40.232;29.132;2022-12-29T03:25:56;7.90;99.90
8945;DHT22;4507;40.232;29.132;2022-12-29T03:28:30;7.90;99.90
8945;DHT22;4507;40.232;29.132;2022-12-29T03:31:03;7.90;99.90
8945;DHT22;4507;40.232;29.132;2022-12-29T03:33:35;7.90;99.90
8945;DHT22;4507;40.232;29.132;2022-12-29T03:36:14;7.90;99.90
8945;DHT22;4507;40.232;29.132;2022-12-29T03:38:49;7.80;99.90
8945;DHT22;4507;40.232;29.132;2022-12-29T03:41:23;7.80;99.90
8945;DHT22;4507;40.232;29.132;2022-12-29T03:43:54;7.80;99.90
8945;DHT22;4507;40.232;29.132;2022-12-29T03:46:23;7.80;99.90
8945;DHT22;4507;40.232;29.132;2022-12-29T03:48:53;7.80;99.90
8945;DHT22;4507;40.232;29.132;2022-12-29T03:51:24;7.80;99.90
8945;DHT22;4507;40.232;29.132;2022-12-29T03:53:54;7.80;99.90
8945;DHT22;4507;40.232;29.132;2022-12-29T03:56:23;8.10;99.90
8945;DHT22;4507;40.232;29.132;2022-12-29T03:58:53;7.80;99.90
8945;DHT22;4507;40.232;29.132;2022-12-29T04:01:31;7.90;99.90
8945;DHT22;4507;40.232;29.132;2022-12-29T04:04:01;7.90;99.90
8945;DHT22;4507;40.232;29.132;2022-12-29T04:06:32;7.90;99.90
8945;DHT22;4507;40.232;29.132;2022-12-29T04:09:05;7.90;99.90
8945;DHT22;4507;40.232;29.132;2022-12-29T04:11:52;7.90;99.90
8945;DHT22;4507;40.232;29.132;2022-12-29T04:14:22;7.90;99.90
8945;DHT22;4507;40.232;29.132;2022-12-29T04:16:52;7.90;99.90
8945;DHT22;4507;40.232;29.132;2022-12-29T04:19:23;7.90;99.90
8945;DHT22;4507;40.232;29.132;2022-12-29T04:21:53;7.80;99.90
8945;DHT22;4507;40.232;29.132;2022-12-29T04:24:23;7.80;99.90
8945;DHT22;4507;40.232;29.132;2022-12-29T04:26:52;7.80;99.90
8945;DHT22;4507;40.232;29.132;2022-12-29T04:29:42;7.80;99.90
8945;DHT22;4507;40.232;29.132;2022-12-29T04:32:29;7.70;99.90
8945;DHT22;4507;40.232;29.132;2022-12-29T04:34:59;7.70;99.90
8945;DHT22;4507;40.232;29.132;2022-12-29T04:37:29;7.60;99.90
8945;DHT22;4507;40.232;29.132;2022-12-29T04:39:58;7.60;99.90
8945;DHT22;4507;40.232;29.132;2022-12-29T04:42:29;7.60;99.90
8945;DHT22;4507;40.232;29.132;2022-12-29T04:44:59;7.60;99.90
8945;DHT22;4507;40.232;29.132;2022-12-29T04:47:44;7.60;99.90
8945;DHT22;4507;40.232;29.132;2022-12-29T04:50:32;7.50;99.90
8945;DHT22;4507;40.232;29.132;2022-12-29T04:53:15;7.50;99.90
8945;DHT22;4507;40.232;29.132;2022-12-29T04:55:49;7.40;99.90
8945;DHT22;4507;40.232;29.132;2022-12-29T04:58:19;7.30;99.90
8945;DHT22;4507;40.232;29.132;2022-12-29T05:00:51;7.20;99.90
8945;DHT22;4507;40.232;29.132;2022-12-29T05:03:23;7.10;99.90
8945;DHT22;4507;40.232;29.132;2022-12-29T05:05:54;7.00;99.90
8945;DHT22;4507;40.232;29.132;2022-12-29T05:08:25;7.00;99.90
8945;DHT22;4507;40.232;29.132;2022-12-29T05:10:57;6.90;99.90
8945;DHT22;4507;40.232;29.132;2022-12-29T05:13:27;6.90;99.90
8945;DHT22;4507;40.232;29.132;2022-12-29T05:15:57;6.80;99.90
8945;DHT22;4507;40.232;29.132;2022-12-29T05:18:27;6.80;99.90
8945;DHT22;4507;40.232;29.132;2022-12-29T05:20:58;6.70;99.90
8945;DHT22;4507;40.232;29.132;2022-12-29T05:23:29;6.70;99.90
8945;DHT22;4507;40.232;29.132;2022-12-29T05:26:03;6.60;99.90
8945;DHT22;4507;40.232;29.132;2022-12-29T05:28:44;6.60;99.90
8945;DHT22;4507;40.232;29.132;2022-12-29T05:31:17;6.50;99.90
8945;DHT22;4507;40.232;29.132;2022-12-29T05:34:05;6.50;99.90
8945;DHT22;4507;40.232;29.132;2022-12-29T05:36:34;6.50;99.90
8945;DHT22;4507;40.232;29.132;2022-12-29T05:39:08;6.50;99.90
8945;DHT22;4507;40.232;29.132;2022-12-29T05:41:37;6.50;99.90
8945;DHT22;4507;40.232;29.132;2022-12-29T05:44:10;6.50;99.90
8945;DHT22;4507;40.232;29.132;2022-12-29T05:46:55;6.50;99.90
8945;DHT22;4507;40.232;29.132;2022-12-29T05:49:44;6.60;99.90
8945;DHT22;4507;40.232;29.132;2022-12-29T05:52:38;6.60;99.90
8945;DHT22;4507;40.232;29.132;2022-12-29T05:55:09;6.60;99.90
8945;DHT22;4507;40.232;29.132;2022-12-29T05:57:39;6.70;99.90
8945;DHT22;4507;40.232;29.132;2022-12-29T06:00:15;6.70;99.90
8945;DHT22;4507;40.232;29.132;2022-12-29T06:02:46;6.70;99.90
8945;DHT22;4507;40.232;29.132;2022-12-29T06:05:17;6.70;99.90
8945;DHT22;4507;40.232;29.132;2022-12-29T06:07:46;6.70;99.90
8945;DHT22;4507;40.232;29.132;2022-12-29T06:10:19;6.70;99.90
8945;DHT22;4507;40.232;29.132;2022-12-29T06:12:59;6.70;99.90
8945;DHT22;4507;40.232;29.132;2022-12-29T06:15:30;6.80;99.90
8945;DHT22;4507;40.232;29.132;2022-12-29T06:18:00;6.80;99.90
8945;DHT22;4507;40.232;29.132;2022-12-29T06:20:29;6.80;99.90
8945;DHT22;4507;40.232;29.132;2022-12-29T06:22:58;6.90;99.90
8945;DHT22;4507;40.232;29.132;2022-12-29T06:25:30;6.90;99.90
8945;DHT22;4507;40.232;29.132;2022-12-29T06:28:03;7.00;99.90
8945;DHT22;4507;40.232;29.132;2022-12-29T06:30:32;7.20;99.90
8945;DHT22;4507;40.232;29.132;2022-12-29T06:33:02;7.40;99.90
8945;DHT22;4507;40.232;29.132;2022-12-29T06:35:31;7.60;99.90
8945;DHT22;4507;40.232;29.132;2022-12-29T06:38:01;7.90;99.90
8945;DHT22;4507;40.232;29.132;2022-12-29T06:40:31;8.10;99.90
8945;DHT22;4507;40.232;29.132;2022-12-29T06:43:27;8.40;99.90
8945;DHT22;4507;40.232;29.132;2022-12-29T06:46:04;8.80;99.90
8945;DHT22;4507;40.232;29.132;2022-12-29T06:48:33;9.10;99.90
8945;DHT22;4507;40.232;29.132;2022-12-29T06:51:03;9.40;99.90
8945;DHT22;4507;40.232;29.132;2022-12-29T06:53:32;9.70;99.90
8945;DHT22;4507;40.232;29.132;2022-12-29T06:56:03;9.90;99.90
8945;DHT22;4507;40.232;29.132;2022-12-29T06:58:32;10.20;99.90
8945;DHT22;4507;40.232;29.132;2022-12-29T07:01:01;10.40;99.90
8945;DHT22;4507;40.232;29.132;2022-12-29T07:03:30;10.60;99.90
8945;DHT22;4507;40.232;29.132;2022-12-29T07:06:00;10.70;99.90
8945;DHT22;4507;40.232;29.132;2022-12-29T07:08:29;10.80;99.90
8945;DHT22;4507;40.232;29.132;2022-12-29T07:10:58;10.80;99.90
8945;DHT22;4507;40.232;29.132;2022-12-29T07:13:29;10.90;99.90
8945;DHT22;4507;40.232;29.132;2022-12-29T07:16:04;11.00;99.90
8945;DHT22;4507;40.232;29.132;2022-12-29T07:18:34;11.20;99.90
8945;DHT22;4507;40.232;29.132;2022-12-29T07:21:03;11.50;99.90
8945;DHT22;4507;40.232;29.132;2022-12-29T07:23:33;11.80;99.90
8945;DHT22;4507;40.232;29.132;2022-12-29T07:26:04;12.20;99.90
8945;DHT22;4507;40.232;29.132;2022-12-29T07:28:36;12.60;99.90
8945;DHT22;4507;40.232;29.132;2022-12-29T07:31:24;13.20;99.90
8945;DHT22;4507;40.232;29.132;2022-12-29T07:33:53;13.80;99.90
8945;DHT22;4507;40.232;29.132;2022-12-29T07:36:23;14.30;99.10
8945;DHT22;4507;40.232;29.132;2022-12-29T07:39:00;14.60;95.70
8945;DHT22;4507;40.232;29.132;2022-12-29T07:41:29;15.00;93.40
8945;DHT22;4507;40.232;29.132;2022-12-29T07:44:03;15.20;91.20
8945;DHT22;4507;40.232;29.132;2022-12-29T07:46:52;15.40;89.10
8945;DHT22;4507;40.232;29.132;2022-12-29T07:49:25;15.70;86.70
8945;DHT22;4507;40.232;29.132;2022-12-29T07:51:54;15.90;84.00
8945;DHT22;4507;40.232;29.132;2022-12-29T07:54:23;16.10;80.30
8945;DHT22;4507;40.232;29.132;2022-12-29T07:56:52;16.30;79.50
8945;DHT22;4507;40.232;29.132;2022-12-29T07:59:23;16.50;78.30
8945;DHT22;4507;40.232;29.132;2022-12-29T08:01:52;16.70;77.10
8945;DHT22;4507;40.232;29.132;2022-12-29T08:04:22;17.00;75.40
8945;DHT22;4507;40.232;29.132;2022-12-29T08:06:51;17.20;73.30
8945;DHT22;4507;40.232;29.132;2022-12-29T08:09:20;17.40;71.90
8945;DHT22;4507;40.232;29.132;2022-12-29T08:12:10;17.60;69.50
8945;DHT22;4507;40.232;29.132;2022-12-29T08:14:40;17.70;67.30
8945;DHT22;4507;40.232;29.132;2022-12-29T08:17:09;17.80;65.30
8945;DHT22;4507;40.232;29.132;2022-12-29T08:19:38;17.80;65.30
8945;DHT22;4507;40.232;29.132;2022-12-29T08:22:10;17.90;64.10
8945;DHT22;4507;40.232;29.132;2022-12-29T08:24:39;17.90;63.40
8945;DHT22;4507;40.232;29.132;2022-12-29T08:27:07;17.80;62.10
8945;DHT22;4507;40.232;29.132;2022-12-29T08:29:47;17.90;61.60
8945;DHT22;4507;40.232;29.132;2022-12-29T08:32:17;17.90;61.20
8945;DHT22;4507;40.232;29.132;2022-12-29T08:34:46;18.00;62.00
8945;DHT22;4507;40.232;29.132;2022-12-29T08:37:15;18.10;62.30
8945;DHT22;4507;40.232;29.132;2022-12-29T08:39:44;18.30;61.70
8945;DHT22;4507;40.232;29.132;2022-12-29T08:42:13;18.40;59.90
8945;DHT22;4507;40.232;29.132;2022-12-29T08:44:42;18.50;58.90
8945;DHT22;4507;40.232;29.132;2022-12-29T08:47:13;18.70;57.70
8945;DHT22;4507;40.232;29.132;2022-12-29T08:49:42;18.70;57.80
8945;DHT22;4507;40.232;29.132;2022-12-29T08:52:11;18.90;57.70
8945;DHT22;4507;40.232;29.132;2022-12-29T08:54:40;19.00;57.30
8945;DHT22;4507;40.232;29.132;2022-12-29T08:57:10;19.20;56.60
8945;DHT22;4507;40.232;29.132;2022-12-29T08:59:50;19.30;55.60
8945;DHT22;4507;40.232;29.132;2022-12-29T09:02:21;19.40;55.10
8945;DHT22;4507;40.232;29.132;2022-12-29T09:04:51;19.50;55.60
8945;DHT22;4507;40.232;29.132;2022-12-29T09:07:21;19.60;55.20
8945;DHT22;4507;40.232;29.132;2022-12-29T09:09:50;19.80;54.60
8945;DHT22;4507;40.232;29.132;2022-12-29T09:12:19;20.00;55.20
8945;DHT22;4507;40.232;29.132;2022-12-29T09:14:48;20.30;54.60
8945;DHT22;4507;40.232;29.132;2022-12-29T09:17:17;20.60;53.70
8945;DHT22;4507;40.232;29.132;2022-12-29T09:20:06;20.80;52.70
8945;DHT22;4507;40.232;29.132;2022-12-29T09:22:36;20.90;51.70
8945;DHT22;4507;40.232;29.132;2022-12-29T09:25:06;21.10;52.70
8945;DHT22;4507;40.232;29.132;2022-12-29T09:27:36;21.30;52.10
8945;DHT22;4507;40.232;29.132;2022-12-29T09:30:08;21.40;51.00
8945;DHT22;4507;40.232;29.132;2022-12-29T09:32:38;21.60;50.10
8945;DHT22;4507;40.232;29.132;2022-12-29T09:35:14;21.60;48.90
8945;DHT22;4507;40.232;29.132;2022-12-29T09:37:45;21.70;49.80
8945;DHT22;4507;40.232;29.132;2022-12-29T09:40:24;21.90;49.50
8945;DHT22;4507;40.232;29.132;2022-12-29T09:43:05;22.20;49.70
8945;DHT22;4507;40.232;29.132;2022-12-29T09:45:42;22.60;49.50
8945;DHT22;4507;40.232;29.132;2022-12-29T09:48:15;23.10;47.90
8945;DHT22;4507;40.232;29.132;2022-12-29T09:50:55;23.40;46.50
8945;DHT22;4507;40.232;29.132;2022-12-29T09:53:28;23.70;45.50
8945;DHT22;4507;40.232;29.132;2022-12-29T09:56:19;23.90;44.90
8945;DHT22;4507;40.232;29.132;2022-12-29T09:58:54;24.00;44.70
8945;DHT22;4507;40.232;29.132;2022-12-29T10:01:29;24.20;44.00
8945;DHT22;4507;40.232;29.132;2022-12-29T10:04:00;24.30;42.90
8945;DHT22;4507;40.232;29.132;2022-12-29T10:06:37;24.30;43.10
8945;DHT22;4507;40.232;29.132;2022-12-29T10:09:32;24.50;43.80
8945;DHT22;4507;40.232;29.132;2022-12-29T10:12:10;24.60;41.90
8945;DHT22;4507;40.232;29.132;2022-12-29T10:14:55;24.70;41.90
8945;DHT22;4507;40.232;29.132;2022-12-29T10:17:35;24.70;41.60
8945;DHT22;4507;40.232;29.132;2022-12-29T10:20:27;24.70;40.90
8945;DHT22;4507;40.232;29.132;2022-12-29T10:23:16;24.70;41.10
8945;DHT22;4507;40.232;29.132;2022-12-29T10:25:50;24.60;41.60
8945;DHT22;4507;40.232;29.132;2022-12-29T10:28:24;24.60;41.30
8945;DHT22;4507;40.232;29.132;2022-12-29T10:30:54;24.60;41.90
8945;DHT22;4507;40.232;29.132;2022-12-29T10:33:37;24.60;41.50
8945;DHT22;4507;40.232;29.132;2022-12-29T10:36:16;24.40;41.40
8945;DHT22;4507;40.232;29.132;2022-12-29T10:38:54;24.10;41.60
8945;DHT22;4507;40.232;29.132;2022-12-29T10:41:29;23.80;41.90
8945;DHT22;4507;40.232;29.132;2022-12-29T10:44:01;23.40;42.00
8945;DHT22;4507;40.232;29.132;2022-12-29T10:46:34;23.00;41.60
8945;DHT22;4507;40.232;29.132;2022-12-29T10:49:25;22.50;41.00
8945;DHT22;4507;40.232;29.132;2022-12-29T10:51:58;21.90;41.30
8945;DHT22;4507;40.232;29.132;2022-12-29T10:54:36;21.20;41.60
8945;DHT22;4507;40.232;29.132;2022-12-29T10:57:10;20.50;42.90
8945;DHT22;4507;40.232;29.132;2022-12-29T10:59:41;19.80;44.00
8945;DHT22;4507;40.232;29.132;2022-12-29T11:02:39;19.10;45.00
8945;DHT22;4507;40.232;29.132;2022-12-29T11:05:20;18.50;46.90
8945;DHT22;4507;40.232;29.132;2022-12-29T11:07:55;18.00;48.20
8945;DHT22;4507;40.232;29.132;2022-12-29T11:10:35;17.60;49.30
8945;DHT22;4507;40.232;29.132;2022-12-29T11:13:12;17.30;50.70
8945;DHT22;4507;40.232;29.132;2022-12-29T11:15:43;17.00;52.10
8945;DHT22;4507;40.232;29.132;2022-12-29T11:18:22;16.70;53.10
8945;DHT22;4507;40.232;29.132;2022-12-29T11:20:53;16.30;54.30
8945;DHT22;4507;40.232;29.132;2022-12-29T11:23:26;16.00;55.30
8945;DHT22;4507;40.232;29.132;2022-12-29T11:26:14;15.80;56.40
8945;DHT22;4507;40.232;29.132;2022-12-29T11:28:45;15.60;57.60
8945;DHT22;4507;40.232;29.132;2022-12-29T11:31:21;15.40;58.00
8945;DHT22;4507;40.232;29.132;2022-12-29T11:33:50;15.20;58.60
8945;DHT22;4507;40.232;29.132;2022-12-29T11:36:22;15.10;59.40
8945;DHT22;4507;40.232;29.132;2022-12-29T11:38:53;15.00;60.10
8945;DHT22;4507;40.232;29.132;2022-12-29T11:41:27;15.00;61.00
8945;DHT22;4507;40.232;29.132;2022-12-29T11:43:58;15.00;61.90
8945;DHT22;4507;40.232;29.132;2022-12-29T11:46:30;15.00;62.50
8945;DHT22;4507;40.232;29.132;2022-12-29T11:49:01;14.90;62.90
8945;DHT22;4507;40.232;29.132;2022-12-29T11:51:37;14.90;63.30
8945;DHT22;4507;40.232;29.132;2022-12-29T11:54:16;14.80;63.80
8945;DHT22;4507;40.232;29.132;2022-12-29T11:56:49;14.80;64.50
8945;DHT22;4507;40.232;29.132;2022-12-29T11:59:38;14.70;65.10
8945;DHT22;4507;40.232;29.132;2022-12-29T12:02:34;14.60;65.60
8945;DHT22;4507;40.232;29.132;2022-12-29T12:05:16;14.60;66.20
8945;DHT22;4507;40.232;29.132;2022-12-29T12:07:54;14.50;66.60
8945;DHT22;4507;40.232;29.132;2022-12-29T12:10:47;14.50;67.10
8945;DHT22;4507;40.232;29.132;2022-12-29T12:13:22;14.40;67.60
8945;DHT22;4507;40.232;29.132;2022-12-29T12:15:58;14.30;68.00
8945;DHT22;4507;40.232;29.132;2022-12-29T12:18:51;14.30;68.50
8945;DHT22;4507;40.232;29.132;2022-12-29T12:21:25;14.30;69.10
8945;DHT22;4507;40.232;29.132;2022-12-29T12:24:05;14.30;69.70
8945;DHT22;4507;40.232;29.132;2022-12-29T12:26:42;14.20;69.90
8945;DHT22;4507;40.232;29.132;2022-12-29T12:29:19;14.20;70.30
8945;DHT22;4507;40.232;29.132;2022-12-29T12:31:53;14.30;70.80
8945;DHT22;4507;40.232;29.132;2022-12-29T12:34:28;14.20;71.10
8945;DHT22;4507;40.232;29.132;2022-12-29T12:40:34;14.20;72.00
8945;DHT22;4507;40.232;29.132;2022-12-29T12:43:28;14.20;72.30
8945;DHT22;4507;40.232;29.132;2022-12-29T12:46:26;14.20;72.70
8945;DHT22;4507;40.232;29.132;2022-12-29T12:51:57;14.00;73.00
8945;DHT22;4507;40.232;29.132;2022-12-29T12:54:45;14.10;73.40
8945;DHT22;4507;40.232;29.132;2022-12-29T12:57:21;14.10;74.00
8945;DHT22;4507;40.232;29.132;2022-12-29T13:00:01;14.10;74.30
8945;DHT22;4507;40.232;29.132;2022-12-29T13:02:44;14.10;74.60
8945;DHT22;4507;40.232;29.132;2022-12-29T13:05:27;14.10;74.80
8945;DHT22;4507;40.232;29.132;2022-12-29T13:08:28;14.10;75.10
8945;DHT22;4507;40.232;29.132;2022-12-29T13:11:25;14.10;75.30
8945;DHT22;4507;40.232;29.132;2022-12-29T13:14:21;14.10;75.50
8945;DHT22;4507;40.232;29.132;2022-12-29T13:16:56;14.10;75.70
8945;DHT22;4507;40.232;29.132;2022-12-29T13:19:33;14.00;75.70
8945;DHT22;4507;40.232;29.132;2022-12-29T13:22:08;14.00;76.00
8945;DHT22;4507;40.232;29.132;2022-12-29T13:24:50;14.00;76.20
8945;DHT22;4507;40.232;29.132;2022-12-29T13:27:26;14.00;76.30
8945;DHT22;4507;40.232;29.132;2022-12-29T13:30:05;14.00;76.40
8945;DHT22;4507;40.232;29.132;2022-12-29T13:32:49;13.90;76.50
8945;DHT22;4507;40.232;29.132;2022-12-29T13:35:30;13.90;76.90
8945;DHT22;4507;40.232;29.132;2022-12-29T13:38:08;13.90;77.10
8945;DHT22;4507;40.232;29.132;2022-12-29T13:40:41;13.80;77.10
8945;DHT22;4507;40.232;29.132;2022-12-29T13:43:14;13.80;77.20
8945;DHT22;4507;40.232;29.132;2022-12-29T13:45:44;13.70;77.30
8945;DHT22;4507;40.232;29.132;2022-12-29T13:48:18;13.70;77.50
8945;DHT22;4507;40.232;29.132;2022-12-29T13:50:52;13.60;77.80
8945;DHT22;4507;40.232;29.132;2022-12-29T13:53:29;13.60;78.10
8945;DHT22;4507;40.232;29.132;2022-12-29T13:56:07;13.60;78.30
8945;DHT22;4507;40.232;29.132;2022-12-29T13:58:46;13.50;78.40
8945;DHT22;4507;40.232;29.132;2022-12-29T14:01:20;13.50;78.50
8945;DHT22;4507;40.232;29.132;2022-12-29T14:03:52;13.40;78.60
8945;DHT22;4507;40.232;29.132;2022-12-29T14:06:26;13.40;78.90
8945;DHT22;4507;40.232;29.132;2022-12-29T14:08:57;13.30;79.10
8945;DHT22;4507;40.232;29.132;2022-12-29T14:11:31;13.30;79.30
8945;DHT22;4507;40.232;29.132;2022-12-29T14:14:12;13.20;79.40
8945;DHT22;4507;40.232;29.132;2022-12-29T14:16:43;13.20;79.70
8945;DHT22;4507;40.232;29.132;2022-12-29T14:19:16;13.10;79.90
8945;DHT22;4507;40.232;29.132;2022-12-29T14:21:55;13.00;80.10
8945;DHT22;4507;40.232;29.132;2022-12-29T14:24:44;13.00;80.40
8945;DHT22;4507;40.232;29.132;2022-12-29T14:27:51;12.90;80.50
8945;DHT22;4507;40.232;29.132;2022-12-29T14:30:46;12.90;80.70
8945;DHT22;4507;40.232;29.132;2022-12-29T14:33:17;12.70;80.70
8945;DHT22;4507;40.232;29.132;2022-12-29T14:35:48;12.70;80.90
8945;DHT22;4507;40.232;29.132;2022-12-29T14:38:26;12.60;81.20
8945;DHT22;4507;40.232;29.132;2022-12-29T14:41:15;12.60;81.60
8945;DHT22;4507;40.232;29.132;2022-12-29T14:44:00;12.50;81.90
8945;DHT22;4507;40.232;29.132;2022-12-29T14:46:47;12.40;82.10
8945;DHT22;4507;40.232;29.132;2022-12-29T14:49:20;12.40;82.40
8945;DHT22;4507;40.232;29.132;2022-12-29T14:51:52;12.30;82.60
8945;DHT22;4507;40.232;29.132;2022-12-29T14:54:46;12.20;82.90
8945;DHT22;4507;40.232;29.132;2022-12-29T14:57:28;12.20;83.30
8945;DHT22;4507;40.232;29.132;2022-12-29T15:00:05;12.10;83.50
8945;DHT22;4507;40.232;29.132;2022-12-29T15:02:39;12.10;83.70
8945;DHT22;4507;40.232;29.132;2022-12-29T15:05:29;12.00;84.00
8945;DHT22;4507;40.232;29.132;2022-12-29T15:08:00;11.90;84.30
8945;DHT22;4507;40.232;29.132;2022-12-29T15:10:38;11.90;84.50
8945;DHT22;4507;40.232;29.132;2022-12-29T15:13:17;11.80;85.00
8945;DHT22;4507;40.232;29.132;2022-12-29T15:15:47;11.70;85.20
8945;DHT22;4507;40.232;29.132;2022-12-29T15:18:28;11.70;85.50
8945;DHT22;4507;40.232;29.132;2022-12-29T15:20:59;11.70;85.90
8945;DHT22;4507;40.232;29.132;2022-12-29T15:23:31;11.60;86.00
8945;DHT22;4507;40.232;29.132;2022-12-29T15:26:05;11.50;86.20
8945;DHT22;4507;40.232;29.132;2022-12-29T15:28:39;11.40;86.50
8945;DHT22;4507;40.232;29.132;2022-12-29T15:31:12;11.30;86.80
8945;DHT22;4507;40.232;29.132;2022-12-29T15:33:43;11.20;87.00
8945;DHT22;4507;40.232;29.132;2022-12-29T15:36:19;11.20;87.50
8945;DHT22;4507;40.232;29.132;2022-12-29T15:38:48;11.10;88.00
8945;DHT22;4507;40.232;29.132;2022-12-29T15:41:26;11.00;88.50
8945;DHT22;4507;40.232;29.132;2022-12-29T15:44:07;11.00;89.10
8945;DHT22;4507;40.232;29.132;2022-12-29T15:46:38;10.90;89.50
8945;DHT22;4507;40.232;29.132;2022-12-29T15:49:08;10.80;89.90
8945;DHT22;4507;40.232;29.132;2022-12-29T15:51:56;10.80;90.10
8945;DHT22;4507;40.232;29.132;2022-12-29T15:54:30;10.70;90.30
8945;DHT22;4507;40.232;29.132;2022-12-29T15:57:01;10.60;90.60
8945;DHT22;4507;40.232;29.132;2022-12-29T15:59:32;10.60;90.80
8945;DHT22;4507;40.232;29.132;2022-12-29T16:02:02;10.50;91.00
8945;DHT22;4507;40.232;29.132;2022-12-29T16:04:39;10.50;91.30
8945;DHT22;4507;40.232;29.132;2022-12-29T16:07:30;10.40;91.50
8945;DHT22;4507;40.232;29.132;2022-12-29T16:10:25;10.40;91.70
8945;DHT22;4507;40.232;29.132;2022-12-29T16:13:04;10.40;92.00
8945;DHT22;4507;40.232;29.132;2022-12-29T16:15:34;10.30;92.20
8945;DHT22;4507;40.232;29.132;2022-12-29T16:18:03;10.30;92.40
8945;DHT22;4507;40.232;29.132;2022-12-29T16:20:39;10.20;92.60
8945;DHT22;4507;40.232;29.132;2022-12-29T16:23:19;10.20;92.90
8945;DHT22;4507;40.232;29.132;2022-12-29T16:25:49;10.10;93.00
8945;DHT22;4507;40.232;29.132;2022-12-29T16:28:22;10.10;93.10
8945;DHT22;4507;40.232;29.132;2022-12-29T16:30:59;10.00;93.20
8945;DHT22;4507;40.232;29.132;2022-12-29T16:33:51;9.90;93.90
8945;DHT22;4507;40.232;29.132;2022-12-29T16:36:27;9.80;94.10
8945;DHT22;4507;40.232;29.132;2022-12-29T16:39:24;9.70;94.40
8945;DHT22;4507;40.232;29.132;2022-12-29T16:41:55;9.60;94.70
8945;DHT22;4507;40.232;29.132;2022-12-29T16:44:27;9.60;95.00
8945;DHT22;4507;40.232;29.132;2022-12-29T16:47:06;9.50;95.30
8945;DHT22;4507;40.232;29.132;2022-12-29T16:49:53;9.50;95.60
8945;DHT22;4507;40.232;29.132;2022-12-29T16:52:26;9.50;95.90
8945;DHT22;4507;40.232;29.132;2022-12-29T16:54:59;9.40;96.10
8945;DHT22;4507;40.232;29.132;2022-12-29T16:57:30;9.30;96.30
8945;DHT22;4507;40.232;29.132;2022-12-29T17:00:06;9.30;96.60